Time;durP1;ratioP1;P1;durP2;ratioP2;P2;SDS_P1;SDS_P2;PMS_P1;PMS_P2;Temp;Humidity;BMP_temperature;BMP_pressure;BME280_temperature;BME280_humidity;BME280_pressure;Samples;Min_cycle;Max_cycle;Signal;HPM_P1;HPM_P2
2022/06/28 00:01:40;;;;;;;3.65;1.27;;;;;;;22.50;51.17;101990.97;5034235;28;20155;-64
2022/06/28 00:04:05;;;;;;;2.90;0.95;;;;;;;22.48;50.91;101995.53;5034567;28;20045;-65
2022/06/28 00:06:30;;;;;;;2.90;1.10;;;;;;;22.48;50.90;101995.53;5034773;28;20440;-65
2022/06/28 00:08:56;;;;;;;3.40;1.20;;;;;;;22.46;51.16;101990.34;5033693;28;20072;-65
2022/06/28 00:11:21;;;;;;;2.60;1.20;;;;;;;22.46;51.06;101987.69;5034556;28;20086;-65
2022/06/28 00:13:46;;;;;;;3.00;1.30;;;;;;;22.45;50.72;101991.34;5034711;28;20105;-65
2022/06/28 00:16:16;;;;;;;2.85;1.20;;;;;;;22.43;51.00;101985.28;5033513;28;20029;-65
2022/06/28 00:18:42;;;;;;;2.65;1.30;;;;;;;22.44;50.81;101992.28;5034527;28;20021;-65
2022/06/28 00:21:09;;;;;;;2.30;1.27;;;;;;;22.43;50.68;101990.59;5034362;28;20100;-65
2022/06/28 00:23:36;;;;;;;2.53;1.10;;;;;;;22.41;50.73;101990.75;5034045;28;20029;-65
2022/06/28 00:26:03;;;;;;;2.75;1.25;;;;;;;22.41;50.88;101989.88;5034293;28;20025;-65
2022/06/28 00:28:28;;;;;;;2.90;1.23;;;;;;;22.41;50.80;101996.06;5033456;28;20021;-65
2022/06/28 00:30:53;;;;;;;3.22;1.23;;;;;;;22.40;50.87;101996.19;5034114;28;20136;-65
2022/06/28 00:33:19;;;;;;;3.07;1.27;;;;;;;22.39;50.76;102002.44;5033878;28;20036;-65
2022/06/28 00:35:44;;;;;;;2.63;1.33;;;;;;;22.39;50.67;101997.13;5033185;28;20294;-65
2022/06/28 00:38:09;;;;;;;2.47;1.08;;;;;;;22.38;50.51;102006.06;5033567;28;20492;-65
2022/06/28 00:40:44;;;;;;;2.20;1.10;;;;;;;22.37;50.72;102005.22;5034090;28;20056;-65
2022/06/28 00:43:10;;;;;;;3.88;1.20;;;;;;;22.36;50.51;102005.34;5032532;28;20031;-66
2022/06/28 00:45:36;;;;;;;2.17;1.20;;;;;;;22.35;50.65;102007.19;5034151;28;20021;-65
2022/06/28 00:48:02;;;;;;;2.50;1.23;;;;;;;22.35;50.62;102004.53;5033601;28;20017;-65
2022/06/28 00:50:28;;;;;;;3.85;1.10;;;;;;;22.35;50.58;102008.97;5033128;28;20132;-65
2022/06/28 00:53:02;;;;;;;2.42;1.20;;;;;;;22.35;50.47;102008.97;5034159;28;20029;-65
2022/06/28 00:55:28;;;;;;;3.65;1.23;;;;;;;22.34;50.49;102015.28;5033963;28;20025;-65
2022/06/28 00:57:53;;;;;;;2.03;1.17;;;;;;;22.33;50.58;102010.91;5033214;28;20044;-65
2022/06/28 01:00:18;;;;;;;2.50;1.00;;;;;;;22.32;50.25;102007.44;5033280;28;20037;-65
2022/06/28 01:02:44;;;;;;;2.22;1.10;;;;;;;22.32;50.39;102009.22;5033588;28;20279;-65
2022/06/28 01:05:09;;;;;;;2.40;1.15;;;;;;;22.32;50.45;102009.22;5032472;28;20100;-65
2022/06/28 01:07:34;;;;;;;2.63;1.13;;;;;;;22.31;50.02;102002.25;5033685;28;20056;-65
2022/06/28 01:10:00;;;;;;;3.35;1.23;;;;;;;22.30;50.21;102004.03;5033522;28;20659;-65
2022/06/28 01:12:26;;;;;;;2.15;1.10;;;;;;;22.30;50.29;102014.66;5032838;28;20025;-65
2022/06/28 01:14:51;;;;;;;3.53;1.10;;;;;;;22.28;50.33;102008.59;5033621;28;20030;-65
2022/06/28 01:17:16;;;;;;;2.67;1.35;;;;;;;22.26;50.45;102002.56;5033037;28;20473;-65
2022/06/28 01:19:42;;;;;;;2.45;1.10;;;;;;;22.26;50.16;102011.38;5032471;28;20018;-65
2022/06/28 01:22:10;;;;;;;3.10;1.10;;;;;;;22.25;50.22;102014.16;5033192;28;20091;-65
2022/06/28 01:24:35;;;;;;;1.83;1.00;;;;;;;22.24;50.06;102009.84;5033343;28;20274;-65
2022/06/28 01:27:02;;;;;;;2.35;1.15;;;;;;;22.23;50.13;102014.28;5032235;28;20017;-65
2022/06/28 01:29:28;;;;;;;2.80;1.23;;;;;;;22.23;49.85;102016.09;5033307;28;20083;-65
2022/06/28 01:31:53;;;;;;;2.58;1.20;;;;;;;22.22;50.14;102012.59;5032427;28;20091;-65
2022/06/28 01:34:19;;;;;;;2.15;1.15;;;;;;;22.21;49.77;102018.88;5032596;28;20050;-65
2022/06/28 01:36:44;;;;;;;2.35;1.13;;;;;;;22.22;49.84;102022.38;5033158;28;20032;-65
2022/06/28 01:39:10;;;;;;;2.55;1.17;;;;;;;22.20;50.11;102019.84;5031987;28;20025;-65
2022/06/28 01:41:36;;;;;;;2.63;1.10;;;;;;;22.20;49.89;102019.00;5033003;28;20026;-65
2022/06/28 01:44:06;;;;;;;2.67;1.13;;;;;;;22.21;49.72;102018.03;5032722;28;20270;-65
2022/06/28 01:46:34;;;;;;;3.10;1.10;;;;;;;22.19;49.62;102025.25;5032124;28;20029;-65
2022/06/28 01:49:00;;;;;;;2.28;1.17;;;;;;;22.19;49.73;102031.44;5032587;28;20381;-65
2022/06/28 01:51:25;;;;;;;3.22;1.27;;;;;;;22.18;49.55;102026.25;5033071;28;20018;-65
2022/06/28 01:53:50;;;;;;;2.13;1.13;;;;;;;22.17;49.70;102032.53;5032113;28;20438;-65
2022/06/28 01:56:16;;;;;;;2.97;1.30;;;;;;;22.17;49.70;102029.88;5031908;28;20033;-65
2022/06/28 01:58:41;;;;;;;3.00;1.20;;;;;;;22.14;49.50;102028.28;5032902;28;20116;-65
2022/06/28 02:01:07;;;;;;;4.10;1.40;;;;;;;22.16;49.37;102036.13;5031769;28;20022;-65
2022/06/28 02:03:32;;;;;;;2.92;1.33;;;;;;;22.15;49.83;102035.28;5032769;28;20030;-65
2022/06/28 02:05:57;;;;;;;2.70;1.30;;;;;;;22.13;49.78;102026.63;5032613;28;20025;-65
2022/06/28 02:08:23;;;;;;;2.80;1.33;;;;;;;22.14;49.59;102030.09;5032118;28;20037;-65
2022/06/28 02:10:48;;;;;;;2.50;1.20;;;;;;;22.12;49.46;102027.56;5032634;28;20522;-65
2022/06/28 02:13:13;;;;;;;2.07;1.20;;;;;;;22.13;49.52;102034.59;5032517;28;20036;-65
2022/06/28 02:15:38;;;;;;;2.55;1.20;;;;;;;22.12;49.47;102038.19;5031951;28;20804;-65
2022/06/28 02:18:04;;;;;;;3.25;1.20;;;;;;;22.10;49.34;102033.00;5032096;28;20029;-65
2022/06/28 02:20:29;;;;;;;3.28;1.20;;;;;;;22.10;49.42;102040.13;5032517;28;20022;-65
2022/06/28 02:22:55;;;;;;;2.67;1.10;;;;;;;22.09;49.22;102044.56;5032033;28;20091;-65
2022/06/28 02:25:20;;;;;;;2.95;1.30;;;;;;;22.09;49.48;102044.56;5032583;28;20546;-65
2022/06/28 02:27:47;;;;;;;2.53;1.20;;;;;;;22.08;49.49;102042.06;5032644;28;20021;-65
2022/06/28 02:30:13;;;;;;;2.97;1.30;;;;;;;22.05;49.36;102053.78;5031434;28;20468;-65
2022/06/28 02:32:38;;;;;;;3.05;1.42;;;;;;;22.06;49.33;102054.59;5032433;28;20060;-65
2022/06/28 02:40:32;;;;;;;2.20;1.33;;;;;;;22.03;49.25;102062.81;5032370;28;20036;-65
2022/06/28 02:42:59;;;;;;;1.60;1.00;;;;;;;22.03;49.20;102071.63;5031335;28;20025;-65
2022/06/28 02:45:32;;;;;;;3.95;1.40;;;;;;;22.03;49.30;102070.78;5032550;28;20060;-65
2022/06/28 02:47:58;;;;;;;3.13;1.10;;;;;;;22.01;48.72;102070.88;5032283;28;20030;-65
2022/06/28 02:50:24;;;;;;;3.08;1.20;;;;;;;22.01;49.12;102075.38;5031672;28;20271;-65
2022/06/28 02:52:50;;;;;;;2.00;1.13;;;;;;;22.00;48.84;102079.84;5032350;28;20025;-65
2022/06/28 02:55:15;;;;;;;2.53;1.20;;;;;;;21.99;48.73;102077.31;5032032;28;20033;-65
2022/06/28 02:57:41;;;;;;;2.38;1.08;;;;;;;21.99;48.76;102083.44;5031400;28;20025;-65
2022/06/28 03:00:13;;;;;;;2.83;1.10;;;;;;;21.98;49.10;102092.38;5032075;28;20024;-65
2022/06/28 03:02:39;;;;;;;2.35;1.17;;;;;;;21.96;48.91;102091.66;5032285;28;20021;-65
2022/06/28 03:05:08;;;;;;;2.70;1.20;;;;;;;21.96;48.83;102094.31;5031073;28;20412;-65
2022/06/28 03:07:33;;;;;;;2.33;1.10;;;;;;;21.96;48.84;102094.31;5034624;28;20029;-65
2022/06/28 03:09:59;;;;;;;4.00;1.98;;;;;;;21.95;48.52;102100.56;5035382;28;20358;-66
2022/06/28 03:12:25;;;;;;;2.55;1.20;;;;;;;21.93;48.71;102098.03;5035043;28;20029;-66
2022/06/28 03:14:50;;;;;;;4.32;1.30;;;;;;;21.93;48.78;102103.34;5036066;28;20017;-65
2022/06/28 03:17:15;;;;;;;1.90;1.10;;;;;;;21.93;48.77;102108.66;5034626;28;20072;-65
2022/06/28 03:19:41;;;;;;;3.83;1.10;;;;;;;21.92;48.73;102103.44;5035622;28;20461;-65
2022/06/28 03:22:06;;;;;;;3.63;1.10;;;;;;;21.91;48.74;102101.78;5035362;28;20103;-66
2022/06/28 03:24:31;;;;;;;2.92;1.10;;;;;;;21.91;48.52;102104.44;5034745;28;20136;-65
2022/06/28 03:26:57;;;;;;;2.92;1.20;;;;;;;21.91;48.68;102112.41;5035524;28;20022;-65
2022/06/28 03:29:22;;;;;;;1.97;0.90;;;;;;;21.89;48.61;102104.56;5035414;28;20030;-65
2022/06/28 03:31:49;;;;;;;3.53;1.30;;;;;;;21.89;48.64;102111.69;5034836;28;20316;-65
2022/06/28 03:34:14;;;;;;;3.00;1.30;;;;;;;21.88;48.50;102109.97;5034891;28;20099;-65
2022/06/28 03:36:40;;;;;;;3.25;1.13;;;;;;;21.88;48.31;102113.47;5035347;28;20033;-65
2022/06/28 03:39:05;;;;;;;2.70;1.10;;;;;;;21.88;48.47;102115.28;5034327;28;20025;-65
2022/06/28 03:41:30;;;;;;;3.20;1.20;;;;;;;21.87;48.46;102124.22;5035178;28;20052;-65
2022/06/28 03:43:56;;;;;;;1.43;0.90;;;;;;;21.86;48.33;102126.03;5035143;28;20121;-65
2022/06/28 03:46:21;;;;;;;3.65;1.30;;;;;;;21.86;48.28;102131.34;5034627;28;20267;-65
2022/06/28 03:48:47;;;;;;;2.67;1.10;;;;;;;21.86;48.24;102130.50;5035287;28;20017;-65
2022/06/28 03:51:13;;;;;;;2.72;1.02;;;;;;;21.85;48.31;102126.97;5034852;28;20025;-65
2022/06/28 03:53:39;;;;;;;3.00;1.17;;;;;;;21.84;48.42;102130.63;5034199;28;20020;-65
2022/06/28 03:56:05;;;;;;;2.65;1.30;;;;;;;21.85;48.21;102126.97;5034527;28;20029;-65
2022/06/28 03:58:31;;;;;;;3.83;1.20;;;;;;;21.85;48.14;102120.84;5034965;28;20033;-65
2022/06/28 04:00:56;;;;;;;2.13;1.05;;;;;;;21.84;47.98;102121.78;5033781;28;20022;-65
2022/06/28 04:03:22;;;;;;;3.80;1.30;;;;;;;21.83;48.18;102123.59;5034932;28;20025;-65
2022/06/28 04:05:47;;;;;;;2.35;0.90;;;;;;;21.82;48.18;102124.56;5034908;28;20611;-65
2022/06/28 04:08:13;;;;;;;2.15;1.00;;;;;;;21.83;48.23;102125.44;5033659;28;20113;-64
2022/06/28 04:10:38;;;;;;;3.10;1.00;;;;;;;21.83;48.19;102128.06;5034621;28;20068;-65
2022/06/28 04:13:04;;;;;;;2.33;1.10;;;;;;;21.82;48.12;102123.72;5034430;28;20536;-65
2022/06/28 04:15:30;;;;;;;2.08;1.00;;;;;;;21.81;48.36;102130.84;5034001;28;20047;-65
2022/06/28 04:17:55;;;;;;;3.25;1.20;;;;;;;21.81;48.30;102122.88;5033856;28;20031;-65
2022/06/28 04:20:20;;;;;;;1.95;0.90;;;;;;;21.81;48.19;102122.03;5034272;28;20035;-65
2022/06/28 04:22:46;;;;;;;3.22;1.00;;;;;;;21.81;48.40;102122.03;5033703;28;20025;-65
2022/06/28 04:25:11;;;;;;;2.85;0.98;;;;;;;21.79;48.41;102122.13;5034097;28;20022;-65
2022/06/28 04:27:36;;;;;;;2.92;0.90;;;;;;;21.79;48.47;102130.09;5033741;28;20045;-65
2022/06/28 04:30:03;;;;;;;2.00;1.00;;;;;;;21.78;48.41;102131.09;5034334;28;20025;-65
2022/06/28 04:32:29;;;;;;;2.67;1.00;;;;;;;21.80;48.39;102136.28;5034478;28;20021;-65
2022/06/28 04:34:55;;;;;;;3.22;1.10;;;;;;;21.79;48.41;102126.59;5033374;28;20401;-65
2022/06/28 04:37:20;;;;;;;2.03;0.90;;;;;;;21.79;48.51;102135.41;5034072;28;20021;-65
2022/06/28 04:39:45;;;;;;;3.38;1.10;;;;;;;21.80;48.32;102136.28;5034223;28;20167;-65
2022/06/28 04:42:11;;;;;;;2.60;0.97;;;;;;;21.80;48.31;102133.63;5033170;28;20429;-65
2022/06/28 04:44:38;;;;;;;2.83;1.02;;;;;;;21.80;48.26;102123.00;5034178;28;20266;-65
2022/06/28 04:47:04;;;;;;;3.05;1.00;;;;;;;21.79;48.40;102119.47;5034114;28;20044;-65
2022/06/28 04:49:29;;;;;;;3.35;1.10;;;;;;;21.78;48.51;102125.78;5033349;28;20385;-65
2022/06/28 04:51:55;;;;;;;2.83;1.20;;;;;;;21.79;48.20;102137.22;5033822;28;20049;-65
2022/06/28 04:54:20;;;;;;;2.63;1.00;;;;;;;21.79;48.32;102131.91;5033510;28;20029;-65
2022/06/28 04:56:46;;;;;;;3.70;1.05;;;;;;;21.78;48.38;102132.88;5033188;28;20037;-65
2022/06/28 04:59:11;;;;;;;2.35;1.05;;;;;;;21.78;48.32;102132.88;5033524;28;20053;-65
2022/06/28 05:01:36;;;;;;;1.83;0.97;;;;;;;21.79;48.46;102134.56;5033756;28;20014;-65
2022/06/28 05:04:02;;;;;;;2.47;0.85;;;;;;;21.79;48.34;102131.91;5032595;28;20262;-65
2022/06/28 05:06:27;;;;;;;1.88;0.90;;;;;;;21.79;48.66;102140.72;5033566;28;20022;-66
2022/06/28 05:08:53;;;;;;;3.33;0.90;;;;;;;21.79;48.55;102147.84;5033411;28;20034;-65
2022/06/28 05:11:18;;;;;;;3.55;1.05;;;;;;;21.79;48.46;102148.69;5032280;28;20313;-65
2022/06/28 05:13:43;;;;;;;2.43;1.00;;;;;;;21.80;48.84;102145.06;5033318;28;20025;-65
2022/06/28 05:16:08;;;;;;;2.17;1.20;;;;;;;21.80;48.51;102139.75;5033289;28;20328;-65
2022/06/28 05:18:34;;;;;;;2.80;0.90;;;;;;;21.81;48.54;102146.78;5032753;28;20033;-65
2022/06/28 05:20:59;;;;;;;3.88;1.33;;;;;;;21.82;48.83;102139.66;5033101;28;20332;-65
2022/06/28 05:23:25;;;;;;;2.35;0.95;;;;;;;21.82;48.74;102139.66;5033446;28;20026;-65
2022/06/28 05:25:50;;;;;;;2.38;0.90;;;;;;;21.82;48.76;102137.00;5032741;28;20457;-65
2022/06/28 05:28:15;;;;;;;3.50;0.93;;;;;;;21.83;48.77;102147.50;5032878;28;20041;-65
2022/06/28 05:30:41;;;;;;;3.45;1.10;;;;;;;21.82;48.67;102140.47;5032370;28;20105;-65
2022/06/28 05:33:07;;;;;;;3.53;1.20;;;;;;;21.84;48.96;102138.56;5032320;28;20022;-65
2022/06/28 05:35:32;;;;;;;2.97;0.90;;;;;;;21.83;49.18;102134.22;5032978;28;20042;-65
2022/06/28 05:37:58;;;;;;;3.60;1.00;;;;;;;21.86;49.27;102133.16;5031809;28;20029;-65
2022/06/28 05:40:23;;;;;;;2.63;0.90;;;;;;;21.86;49.22;102127.84;5033276;28;20026;-65
2022/06/28 05:42:49;;;;;;;3.25;0.98;;;;;;;21.86;49.09;102125.19;5033295;28;20036;-65
2022/06/28 05:45:14;;;;;;;3.45;1.00;;;;;;;21.87;49.41;102116.25;5032016;28;20025;-65
2022/06/28 05:47:39;;;;;;;3.08;0.90;;;;;;;21.86;49.08;102118.06;5033203;28;20421;-65
2022/06/28 05:50:05;;;;;;;4.03;1.00;;;;;;;21.87;48.62;102127.72;5032802;28;20488;-68
2022/06/28 05:52:30;;;;;;;4.30;1.25;;;;;;;21.78;49.06;102119.59;5032211;28;20389;-66
2022/06/28 05:54:56;;;;;;;3.40;1.10;;;;;;;21.72;49.79;102113.81;5032535;28;20587;-66
2022/06/28 05:57:21;;;;;;;3.60;1.27;;;;;;;21.75;49.87;102110.09;5032992;28;20033;-64
2022/06/28 05:59:46;;;;;;;4.00;1.10;;;;;;;21.79;49.96;102100.91;5032307;28;20053;-64
2022/06/28 06:02:12;;;;;;;3.28;1.02;;;;;;;21.84;50.18;102103.22;5032624;28;20496;-64
2022/06/28 06:04:38;;;;;;;2.53;1.00;;;;;;;21.88;49.96;102107.34;5032778;28;20017;-66
2022/06/28 06:07:04;;;;;;;2.90;0.90;;;;;;;21.91;49.88;102115.06;5032229;28;20285;-64
2022/06/28 06:09:29;;;;;;;3.60;1.05;;;;;;;21.93;50.25;102113.94;5032779;28;20026;-64
2022/06/28 06:11:54;;;;;;;4.57;1.02;;;;;;;21.98;49.82;102116.25;5032571;28;20469;-65
2022/06/28 06:14:21;;;;;;;2.53;1.00;;;;;;;22.02;50.13;102123.03;5031752;28;20037;-63
2022/06/28 06:16:50;;;;;;;5.32;1.17;;;;;;;22.04;49.66;102121.09;5032615;28;20337;-62
2022/06/28 06:19:16;;;;;;;3.25;1.00;;;;;;;22.05;49.92;102122.78;5032170;28;20385;-62
2022/06/28 06:21:41;;;;;;;4.47;1.13;;;;;;;22.06;49.09;102127.13;5031870;28;20028;-64
2022/06/28 06:24:06;;;;;;;5.35;1.20;;;;;;;22.07;49.50;102128.81;5032116;28;20473;-64
2022/06/28 06:26:33;;;;;;;2.60;0.80;;;;;;;22.08;49.74;102127.84;5032670;28;20101;-64
2022/06/28 06:28:58;;;;;;;4.28;0.90;;;;;;;22.10;50.11;102133.03;5031429;28;20053;-64
2022/06/28 06:31:23;;;;;;;4.60;1.23;;;;;;;22.13;50.11;102132.81;5032584;28;20060;-64
2022/06/28 06:33:49;;;;;;;5.40;1.23;;;;;;;22.15;49.73;102136.19;5032347;28;20352;-64
2022/06/28 06:36:14;;;;;;;6.90;1.70;;;;;;;22.09;46.95;102134.84;5031250;28;20597;-62
2022/06/28 06:38:39;;;;;;;5.80;1.40;;;;;;;22.00;46.00;102129.41;5032357;28;20021;-64
2022/06/28 06:41:05;;;;;;;7.32;1.40;;;;;;;21.90;46.64;102140.75;5032401;28;20025;-64
2022/06/28 06:43:30;;;;;;;3.80;1.02;;;;;;;21.87;48.69;102141.00;5035670;28;20025;-65
2022/06/28 06:45:56;;;;;;;4.60;1.50;;;;;;;21.91;49.27;102138.94;5036022;28;20044;-63
2022/06/28 06:48:22;;;;;;;6.82;1.40;;;;;;;21.95;49.01;102142.19;5035548;28;20060;-66
2022/06/28 06:50:48;;;;;;;10.27;1.48;;;;;;;22.01;49.02;102137.25;5036235;28;20032;-66
2022/06/28 06:53:13;;;;;;;5.53;1.38;;;;;;;22.05;49.39;102144.03;5035936;28;20025;-66
2022/06/28 06:55:38;;;;;;;4.18;1.42;;;;;;;22.10;49.21;102143.66;5035551;28;20033;-64
2022/06/28 06:58:04;;;;;;;5.18;1.33;;;;;;;22.14;49.25;102146.91;5035951;28;20029;-64
2022/06/28 07:00:29;;;;;;;4.50;1.10;;;;;;;22.17;49.27;102152.81;5036192;28;20029;-64
2022/06/28 07:02:54;;;;;;;4.38;1.30;;;;;;;22.20;49.60;102147.28;5035359;28;20377;-65
2022/06/28 07:05:20;;;;;;;5.85;1.20;;;;;;;22.24;49.37;102145.25;5035784;28;20469;-65
2022/06/28 07:07:45;;;;;;;4.90;1.20;;;;;;;22.26;49.19;102149.47;5035898;28;20392;-64
2022/06/28 07:10:11;;;;;;;3.37;0.93;;;;;;;22.29;49.08;102151.03;5035017;28;20079;-65
2022/06/28 07:12:36;;;;;;;7.43;1.30;;;;;;;22.33;49.18;102156.97;5036084;28;20694;-65
2022/06/28 07:15:02;;;;;;;6.22;1.50;;;;;;;22.23;45.63;102160.31;5035389;28;20021;-65
2022/06/28 07:17:27;;;;;;;4.40;1.10;;;;;;;22.13;46.81;102153.19;5034916;28;20039;-64
2022/06/28 07:19:52;;;;;;;7.10;1.30;;;;;;;22.09;48.65;102150.75;5035588;28;20087;-63
2022/06/28 07:22:17;;;;;;;5.70;1.10;;;;;;;22.12;48.75;102154.16;4985949;28;20299;-65
2022/06/28 07:24:43;;;;;;;9.07;1.23;;;;;;;22.10;49.35;102146.31;5035173;28;20056;-64
2022/06/28 07:27:08;;;;;;;4.07;1.13;;;;;;;22.10;49.54;102141.84;5035445;28;20389;-66
2022/06/28 07:29:33;;;;;;;3.20;0.95;;;;;;;22.17;49.38;102149.34;5035660;28;20033;-72
2022/06/28 07:31:58;;;;;;;4.50;1.15;;;;;;;22.23;49.21;102148.84;5034546;28;20021;-67
2022/06/28 07:34:24;;;;;;;4.77;1.30;;;;;;;22.28;49.17;102152.00;5035294;28;20623;-66
2022/06/28 07:36:50;;;;;;;6.90;1.37;;;;;;;22.29;48.28;102145.72;5035318;28;20282;-66
2022/06/28 07:39:15;;;;;;;6.22;1.63;;;;;;;22.33;48.81;102146.34;5034430;28;20275;-66
2022/06/28 07:41:41;;;;;;;5.25;1.27;;;;;;;22.36;48.80;102149.59;5035408;28;20028;-67
2022/06/28 07:44:06;;;;;;;5.25;1.20;;;;;;;22.45;48.44;102150.69;5035090;28;20456;-70
2022/06/28 07:46:31;;;;;;;3.20;1.00;;;;;;;22.51;48.08;102142.25;5010921;28;20485;-65
2022/06/28 07:48:57;;;;;;;5.70;1.40;;;;;;;22.56;48.45;102149.84;5034884;28;20025;-65
2022/06/28 07:54:06;;;;;;;8.68;1.00;;;;;;;22.66;47.76;102152.63;5032768;28;20045;-66
2022/06/28 07:56:32;;;;;;;8.25;1.88;;;;;;;22.72;47.65;102142.31;5035149;28;20432;-67
2022/06/28 07:58:57;;;;;;;5.50;1.33;;;;;;;22.77;47.60;102140.13;5033966;28;20029;-68
2022/06/28 08:01:22;;;;;;;4.95;1.13;;;;;;;22.83;47.63;102147.63;5035474;28;20441;-70
2022/06/28 08:03:47;;;;;;;5.53;1.13;;;;;;;22.88;47.26;102141.09;5034944;28;20108;-69
2022/06/28 08:06:13;;;;;;;3.85;0.90;;;;;;;22.89;47.16;102135.66;5033727;28;20038;-66
2022/06/28 08:08:39;;;;;;;5.70;1.20;;;;;;;22.90;47.05;102145.28;5034862;28;20475;-66
2022/06/28 08:11:04;;;;;;;4.97;1.08;;;;;;;22.90;47.44;102133.84;5036851;28;20041;-68
2022/06/28 08:13:30;;;;;;;3.83;1.25;;;;;;;22.95;47.51;102136.94;5029971;28;85957;-65
2022/06/28 08:15:56;;;;;;;5.50;1.08;;;;;;;22.96;47.31;102138.66;5022634;28;101618;-66
2022/06/28 08:18:21;;;;;;;5.35;1.02;;;;;;;22.96;47.23;102131.50;5034537;28;20037;-74
2022/06/28 08:20:46;;;;;;;5.78;1.15;;;;;;;22.98;47.50;102128.72;5034152;28;20461;-65
2022/06/28 08:23:12;;;;;;;3.70;1.00;;;;;;;23.03;46.93;102129.19;5034489;28;20465;-71
2022/06/28 08:25:38;;;;;;;3.45;1.10;;;;;;;23.06;47.17;102125.44;5034529;28;20025;-69
2022/06/28 08:28:04;;;;;;;5.03;1.10;;;;;;;23.09;46.76;102120.75;5033723;28;20100;-66
2022/06/28 08:30:29;;;;;;;3.72;1.02;;;;;;;23.12;46.58;102111.69;5034513;28;20052;-67
2022/06/28 08:32:55;;;;;;;7.50;1.10;;;;;;;23.08;46.39;102112.88;5034322;28;20525;-67
2022/06/28 08:35:21;;;;;;;5.38;1.25;;;;;;;23.08;46.58;102115.53;5033344;28;20060;-68
2022/06/28 08:37:46;;;;;;;4.07;1.10;;;;;;;23.07;46.63;102109.38;5034341;28;20061;-66
2022/06/28 08:40:12;;;;;;;3.58;0.90;;;;;;;23.07;46.70;102111.19;5034143;28;20449;-67
2022/06/28 08:42:39;;;;;;;4.03;1.35;;;;;;;23.08;46.52;102110.22;5033473;28;20357;-66
2022/06/28 08:45:06;;;;;;;3.90;0.95;;;;;;;23.07;46.16;102104.03;5033856;28;20044;-66
2022/06/28 08:47:37;;;;;;;4.30;1.15;;;;;;;23.08;46.42;102102.25;5034025;28;20028;-66
2022/06/28 08:50:15;;;;;;;2.33;0.70;;;;;;;23.08;46.23;102094.28;5033239;28;20021;-70
2022/06/28 08:52:42;;;;;;;3.22;0.88;;;;;;;23.10;46.16;102105.66;5034327;28;20021;-70
2022/06/28 08:55:09;;;;;;;3.10;0.70;;;;;;;23.09;46.13;102102.13;5033028;28;20033;-67
2022/06/28 08:57:35;;;;;;;2.75;0.88;;;;;;;23.08;46.44;102096.94;5033773;28;20029;-68
2022/06/28 09:00:04;;;;;;;8.30;1.00;;;;;;;23.11;45.91;102100.19;5033552;28;20104;-67
2022/06/28 09:02:30;;;;;;;4.97;1.08;;;;;;;23.14;45.76;102104.41;5032834;28;20025;-67
2022/06/28 09:04:58;;;;;;;3.75;0.90;;;;;;;23.16;45.86;102097.13;5033349;28;20021;-64
2022/06/28 09:07:24;;;;;;;4.53;1.00;;;;;;;23.16;45.92;102097.13;5033784;28;20061;-67
2022/06/28 09:09:50;;;;;;;2.83;1.10;;;;;;;23.13;46.16;102098.25;4992267;28;20053;-66
2022/06/28 09:12:16;;;;;;;4.53;1.05;;;;;;;23.14;46.08;102099.91;5036889;28;20513;-66
2022/06/28 09:14:41;;;;;;;4.15;0.95;;;;;;;23.16;46.67;102095.34;5033416;28;20032;-65
2022/06/28 09:17:25;;;;;;;3.42;0.95;;;;;;;23.17;46.06;102093.50;5032524;28;20053;-71
2022/06/28 09:20:09;;;;;;;3.00;0.85;;;;;;;23.19;46.60;102086.25;5033432;28;20049;-65
2022/06/28 09:22:40;;;;;;;4.43;0.90;;;;;;;23.20;46.17;102082.63;5033477;28;20049;-64
2022/06/28 09:25:09;;;;;;;3.70;0.70;;;;;;;23.21;46.32;102091.44;5032715;28;20024;-67
2022/06/28 09:27:36;;;;;;;4.35;0.73;;;;;;;23.21;46.34;102079.00;5038070;28;20088;-67
2022/06/28 09:30:07;;;;;;;2.90;0.90;;;;;;;23.23;46.22;102074.38;5032514;28;20065;-67
2022/06/28 09:32:34;;;;;;;5.32;0.90;;;;;;;23.24;46.01;102076.09;5033472;28;20026;-64
2022/06/28 09:35:03;;;;;;;3.95;0.90;;;;;;;23.22;46.47;102075.34;5032642;28;20045;-65
2022/06/28 09:37:49;;;;;;;4.05;1.08;;;;;;;23.22;46.67;102067.38;5032387;28;20037;-64
2022/06/28 09:40:19;;;;;;;3.17;0.80;;;;;;;23.24;46.79;102067.25;5032959;28;20046;-66
2022/06/28 09:42:47;;;;;;;3.10;0.80;;;;;;;23.23;44.46;102066.41;5033261;28;20026;-67
2022/06/28 09:45:15;;;;;;;4.53;1.13;;;;;;;23.22;46.12;102069.19;5032023;28;20039;-65
2022/06/28 09:47:46;;;;;;;3.65;0.88;;;;;;;23.23;46.64;102065.59;5033015;28;20076;-70
2022/06/28 09:50:17;;;;;;;5.80;1.20;;;;;;;23.22;42.11;102062.06;5032717;28;20029;-67
2022/06/28 09:52:45;;;;;;;5.50;1.10;;;;;;;23.15;42.00;102059.06;5032460;28;20053;-67
2022/06/28 09:55:14;;;;;;;3.15;1.20;;;;;;;23.06;43.35;102053.66;5032781;28;20052;-67
2022/06/28 09:57:41;;;;;;;4.22;1.30;;;;;;;22.94;41.93;102051.06;5032677;28;20126;-67
2022/06/28 10:00:07;;;;;;;3.38;1.25;;;;;;;22.86;43.21;102050.84;5031883;28;20048;-67
2022/06/28 10:02:34;;;;;;;5.28;2.33;;;;;;;22.78;44.13;102043.50;5032790;28;20112;-66
2022/06/28 10:05:01;;;;;;;4.85;2.53;;;;;;;22.78;44.60;102043.50;5032859;28;20049;-70
2022/06/28 10:07:30;;;;;;;5.85;2.65;;;;;;;22.84;44.76;102047.47;5032314;28;20044;-67
2022/06/28 10:09:55;;;;;;;6.38;2.50;;;;;;;22.90;44.96;102049.59;5032577;28;20021;-66
2022/06/28 10:15:06;;;;;;;14.48;4.05;;;;;;;22.97;46.37;102036.66;5032564;28;20400;-64
2022/06/28 10:17:45;;;;;;;9.27;4.90;;;;;;;22.99;46.70;102038.22;5035459;28;20041;-64
2022/06/28 10:20:15;;;;;;;9.50;5.35;;;;;;;23.03;46.95;102037.97;5036182;28;20396;-63
2022/06/28 10:22:41;;;;;;;9.57;5.40;;;;;;;23.04;46.85;102039.66;5036895;28;20018;-64
2022/06/28 10:25:15;;;;;;;10.88;6.10;;;;;;;23.06;47.44;102035.03;5036409;28;20079;-64
2022/06/28 10:27:51;;;;;;;7.63;5.88;;;;;;;23.09;47.69;102037.47;5035904;28;20039;-64
2022/06/28 10:30:19;;;;;;;9.43;5.70;;;;;;;23.10;47.59;102025.88;5036593;28;20111;-64
2022/06/28 10:32:45;;;;;;;10.18;6.22;;;;;;;23.11;47.79;102028.38;5036551;28;20460;-65
2022/06/28 10:35:30;;;;;;;9.52;6.25;;;;;;;23.14;48.17;102021.97;5035253;28;20141;-65
2022/06/28 10:38:08;;;;;;;11.95;6.43;;;;;;;23.16;48.33;102022.69;5035900;28;20025;-63
2022/06/28 10:40:47;;;;;;;9.88;6.40;;;;;;;23.17;47.84;102017.22;5035893;28;20021;-62
2022/06/28 10:43:33;;;;;;;10.63;5.50;;;;;;;23.18;48.07;102004.81;5036108;28;20026;-61
2022/06/28 10:46:07;;;;;;;12.15;5.70;;;;;;;23.20;48.02;102010.00;5035716;28;20037;-65
2022/06/28 10:48:47;;;;;;;12.00;5.13;;;;;;;23.20;47.94;102004.66;5035517;28;20596;-63
2022/06/28 10:51:13;;;;;;;9.40;5.47;;;;;;;23.19;47.88;102003.81;5035986;28;20078;-62
2022/06/28 10:54:06;;;;;;;10.77;5.07;;;;;;;23.20;48.06;101994.88;5036250;28;20017;-65
2022/06/28 10:56:31;;;;;;;9.85;4.82;;;;;;;23.22;48.28;101986.75;5035352;28;20029;-65
2022/06/28 10:59:11;;;;;;;9.07;4.73;;;;;;;23.20;48.09;101984.22;5035654;28;20029;-70
2022/06/28 11:01:39;;;;;;;11.02;4.60;;;;;;;23.21;48.46;101993.91;5037054;28;20283;-71
2022/06/28 11:04:11;;;;;;;9.23;4.63;;;;;;;23.22;48.73;101989.41;5040272;28;20068;-64
2022/06/28 11:06:40;;;;;;;15.00;5.25;;;;;;;23.25;48.30;101986.50;5036044;28;20022;-61
2022/06/28 11:09:12;;;;;;;8.65;4.25;;;;;;;23.26;48.42;101982.88;5034865;28;20021;-61
2022/06/28 11:12:06;;;;;;;9.30;4.25;;;;;;;23.27;48.44;101981.88;5036144;28;20029;-61
2022/06/28 11:14:34;;;;;;;14.65;4.05;;;;;;;23.26;48.38;101973.06;5035990;28;20061;-61
2022/06/28 11:17:00;;;;;;;8.88;4.55;;;;;;;23.27;48.10;101977.41;5034605;28;20116;-61
2022/06/28 11:19:26;;;;;;;9.40;4.43;;;;;;;23.28;48.36;101967.63;5035748;28;20494;-61
2022/06/28 11:21:55;;;;;;;8.07;3.35;;;;;;;23.26;48.36;101965.09;5035563;28;20108;-61
2022/06/28 11:24:21;;;;;;;7.95;3.65;;;;;;;23.28;48.15;101973.78;5034772;28;20112;-61
2022/06/28 11:29:32;;;;;;;10.43;2.92;;;;;;;23.28;47.94;101964.97;5035329;28;20546;-63
2022/06/28 11:31:57;;;;;;;5.68;2.30;;;;;;;23.26;46.65;101962.44;5035338;28;20033;-63
2022/06/28 11:34:27;;;;;;;6.05;2.50;;;;;;;23.26;47.00;101949.13;5035171;28;20046;-61
2022/06/28 11:36:56;;;;;;;5.70;2.33;;;;;;;23.27;47.32;101947.31;5034775;28;20136;-60